createdAt,value
2023-03-25T00:06:50.753Z,99565.00
2023-03-25T00:16:52.431Z,99563.00
2023-03-25T00:26:54.174Z,99557.00
2023-03-25T00:36:56.140Z,99551.00
2023-03-25T00:46:55.826Z,99547.00
2023-03-25T00:56:55.874Z,99542.00
2023-03-25T01:06:55.846Z,99542.00
2023-03-25T01:16:55.937Z,99536.00
2023-03-25T01:26:55.888Z,99536.00
2023-03-25T01:36:56.057Z,99538.00
2023-03-25T01:46:55.863Z,99538.00
2023-03-25T01:56:56.428Z,99528.00
2023-03-25T02:06:57.994Z,99524.00
2023-03-25T02:16:58.127Z,99516.00
2023-03-25T02:26:59.382Z,99516.00
2023-03-25T02:37:01.140Z,99520.00
2023-03-25T02:47:00.988Z,99520.00
2023-03-25T02:57:01.386Z,99524.00
2023-03-25T03:07:01.992Z,99522.00
2023-03-25T03:17:03.068Z,99506.00
2023-03-25T03:27:03.067Z,99506.00
2023-03-25T03:37:03.093Z,99504.00
2023-03-25T03:47:03.061Z,99504.00
2023-03-25T03:57:03.224Z,99506.00
2023-03-25T04:07:04.064Z,99516.00
2023-03-25T04:17:06.162Z,99520.00
2023-03-25T04:27:06.154Z,99520.00
2023-03-25T04:37:06.185Z,99518.00
2023-03-25T04:47:06.138Z,99518.00
2023-03-25T04:57:08.237Z,99514.00
2023-03-25T05:07:08.293Z,99504.00
2023-03-25T05:17:08.199Z,99500.00
2023-03-25T05:27:08.214Z,99502.00
2023-03-25T05:37:08.259Z,99522.00
2023-03-25T05:47:08.182Z,99522.00
2023-03-25T05:57:08.319Z,99524.00
2023-03-25T06:07:11.085Z,99524.00
2023-03-25T06:17:11.209Z,99524.00
2023-03-25T06:27:11.759Z,99534.00
2023-03-25T06:37:14.499Z,99532.00
2023-03-25T06:47:16.146Z,99536.00
2023-03-25T06:57:16.721Z,99545.00
2023-03-25T07:07:17.293Z,99547.00
2023-03-25T07:17:17.390Z,99549.00
2023-03-25T07:27:19.287Z,99559.00
2023-03-25T07:37:19.310Z,99563.00
2023-03-25T07:47:19.350Z,99569.00
2023-03-25T07:57:19.494Z,99567.00
2023-03-25T08:07:19.469Z,99573.00
2023-03-25T08:17:19.370Z,99592.00
2023-03-25T08:27:19.437Z,99602.00
2023-03-25T08:37:19.493Z,99606.00
2023-03-25T08:47:19.558Z,99606.00
2023-03-25T08:57:19.428Z,99606.00
2023-03-25T09:07:19.501Z,99604.00
2023-03-25T09:17:19.845Z,99610.00
2023-03-25T09:27:20.618Z,99604.00
2023-03-25T09:37:20.771Z,99602.00
2023-03-25T09:47:20.886Z,99600.00
2023-03-25T09:57:21.737Z,99606.00
2023-03-25T10:07:21.519Z,99612.00
2023-03-25T10:17:22.119Z,99614.00
2023-03-25T10:27:23.621Z,99618.00
2023-03-25T10:37:23.706Z,99624.00
2023-03-25T10:47:23.689Z,99628.00
2023-03-25T10:57:23.674Z,99630.00
2023-03-25T11:07:24.129Z,99634.00
2023-03-25T11:17:26.252Z,99630.00
2023-03-25T11:27:27.957Z,99630.00
2023-03-25T11:37:27.909Z,99622.00
2023-03-25T11:47:27.755Z,99626.00
2023-03-25T11:57:28.794Z,99630.00
2023-03-25T12:07:29.770Z,99638.00
2023-03-25T12:17:29.765Z,99639.00
2023-03-25T12:27:30.660Z,99651.00
2023-03-25T12:37:31.084Z,99645.00
2023-03-25T12:47:31.716Z,99638.00
2023-03-25T12:57:31.764Z,99626.00
2023-03-25T13:07:34.054Z,99616.00
2023-03-25T13:17:33.905Z,99596.00
2023-03-25T13:27:33.840Z,99610.00
2023-03-25T13:37:33.946Z,99659.00
2023-03-25T13:47:33.879Z,99671.00
2023-03-25T13:57:33.835Z,99677.00
2023-03-25T14:07:33.955Z,99669.00
2023-03-25T14:17:35.281Z,99669.00
2023-03-25T14:27:36.980Z,99661.00
2023-03-25T14:37:37.533Z,99661.00
2023-03-25T14:47:37.916Z,99653.00
2023-03-25T14:57:37.991Z,99636.00
2023-03-25T15:07:38.541Z,99614.00
2023-03-25T15:17:38.965Z,99628.00
2023-03-25T15:27:38.926Z,99655.00
2023-03-25T15:37:46.096Z,99669.00
2023-03-25T15:47:43.037Z,99669.00
2023-03-25T15:57:43.013Z,99661.00
2023-03-25T16:07:43.127Z,99653.00
2023-03-25T16:17:43.121Z,99657.00
2023-03-25T16:27:43.922Z,99657.00
2023-03-25T16:37:44.132Z,99663.00
2023-03-25T16:47:45.633Z,99667.00
2023-03-25T16:57:46.094Z,99665.00
2023-03-25T17:07:47.713Z,99679.00
2023-03-25T17:17:50.277Z,99696.00
2023-03-25T17:27:50.263Z,99704.00
2023-03-25T17:37:50.252Z,99739.00
2023-03-25T17:47:50.867Z,99741.00
2023-03-25T17:57:51.212Z,99755.00
2023-03-25T18:07:51.389Z,99773.00
2023-03-25T18:17:52.657Z,99779.00
2023-03-25T18:27:53.306Z,99785.00
2023-03-25T18:37:53.330Z,99797.00
2023-03-25T18:47:53.325Z,99809.00
2023-03-25T18:57:53.285Z,99817.00
2023-03-25T19:07:53.300Z,99822.00
2023-03-25T19:17:53.328Z,99824.00
2023-03-25T19:27:53.234Z,99813.00
2023-03-25T19:37:55.208Z,99803.00
2023-03-25T19:47:55.272Z,99807.00
2023-03-25T19:57:55.308Z,99813.00
2023-03-25T20:07:55.731Z,99818.00
2023-03-25T20:17:56.624Z,99817.00
2023-03-25T20:27:57.431Z,99820.00
2023-03-25T20:37:57.864Z,99817.00
2023-03-25T20:47:58.590Z,99818.00
2023-03-25T20:57:58.419Z,99824.00
2023-03-25T21:07:58.414Z,99832.00
2023-03-25T21:17:58.432Z,99840.00
2023-03-25T21:27:58.524Z,99844.00
2023-03-25T21:38:00.489Z,99846.00
2023-03-25T21:48:02.082Z,99850.00
2023-03-25T21:58:02.412Z,99852.00
2023-03-25T22:08:02.479Z,99860.00
2023-03-25T22:18:02.616Z,99867.00
2023-03-25T22:28:02.514Z,99883.00
2023-03-25T22:38:02.993Z,99899.00
2023-03-25T22:48:03.592Z,99912.00
2023-03-25T22:58:03.792Z,99912.00
2023-03-25T23:08:03.650Z,99916.00
2023-03-25T23:18:03.859Z,99918.00
2023-03-25T23:28:05.335Z,99922.00
2023-03-25T23:38:05.565Z,99922.00
2023-03-25T23:48:06.000Z,99924.00
2023-03-25T23:58:06.677Z,99928.00
